sensor_id;sensor_type;location;lat;lon;timestamp;P1;durP1;ratioP1;P2;durP2;ratioP2
51148;SDS011;37210;50.058;8.688;2022-10-04T00:00:07;9.70;;;6.53;;
51148;SDS011;37210;50.058;8.688;2022-10-04T00:02:37;7.35;;;6.60;;
51148;SDS011;37210;50.058;8.688;2022-10-04T00:05:14;7.47;;;5.93;;
51148;SDS011;37210;50.058;8.688;2022-10-04T00:07:49;9.20;;;7.03;;
51148;SDS011;37210;50.058;8.688;2022-10-04T00:10:25;7.70;;;6.13;;
51148;SDS011;37210;50.058;8.688;2022-10-04T00:12:59;10.18;;;6.47;;
51148;SDS011;37210;50.058;8.688;2022-10-04T00:15:32;6.85;;;6.20;;
51148;SDS011;37210;50.058;8.688;2022-10-04T00:18:05;7.45;;;5.90;;
51148;SDS011;37210;50.058;8.688;2022-10-04T00:20:55;8.80;;;6.38;;
51148;SDS011;37210;50.058;8.688;2022-10-04T00:23:39;10.23;;;6.90;;
51148;SDS011;37210;50.058;8.688;2022-10-04T00:27:08;7.28;;;6.57;;
51148;SDS011;37210;50.058;8.688;2022-10-04T00:29:38;8.45;;;6.78;;
51148;SDS011;37210;50.058;8.688;2022-10-04T00:32:23;8.43;;;6.80;;
51148;SDS011;37210;50.058;8.688;2022-10-04T00:34:53;10.60;;;6.63;;
51148;SDS011;37210;50.058;8.688;2022-10-04T00:37:22;7.38;;;6.68;;
51148;SDS011;37210;50.058;8.688;2022-10-04T00:39:56;7.50;;;6.28;;
51148;SDS011;37210;50.058;8.688;2022-10-04T00:42:45;9.65;;;6.47;;
51148;SDS011;37210;50.058;8.688;2022-10-04T00:45:30;7.85;;;6.90;;
51148;SDS011;37210;50.058;8.688;2022-10-04T00:48:04;7.15;;;6.45;;
51148;SDS011;37210;50.058;8.688;2022-10-04T00:50:54;9.93;;;6.32;;
51148;SDS011;37210;50.058;8.688;2022-10-04T00:53:35;7.03;;;6.32;;
51148;SDS011;37210;50.058;8.688;2022-10-04T00:56:14;9.43;;;7.18;;
51148;SDS011;37210;50.058;8.688;2022-10-04T00:59:06;8.88;;;6.40;;
51148;SDS011;37210;50.058;8.688;2022-10-04T01:01:48;7.72;;;6.22;;
51148;SDS011;37210;50.058;8.688;2022-10-04T01:04:23;8.02;;;6.18;;
51148;SDS011;37210;50.058;8.688;2022-10-04T01:07:00;7.72;;;6.93;;
51148;SDS011;37210;50.058;8.688;2022-10-04T01:09:31;10.90;;;6.38;;
51148;SDS011;37210;50.058;8.688;2022-10-04T01:12:09;8.70;;;6.72;;
51148;SDS011;37210;50.058;8.688;2022-10-04T01:14:51;7.43;;;6.30;;
51148;SDS011;37210;50.058;8.688;2022-10-04T01:17:30;7.30;;;6.50;;
51148;SDS011;37210;50.058;8.688;2022-10-04T01:19:57;8.25;;;6.63;;
51148;SDS011;37210;50.058;8.688;2022-10-04T01:22:33;8.70;;;7.40;;
51148;SDS011;37210;50.058;8.688;2022-10-04T01:25:06;9.90;;;7.00;;
51148;SDS011;37210;50.058;8.688;2022-10-04T01:27:36;9.50;;;6.53;;
51148;SDS011;37210;50.058;8.688;2022-10-04T01:30:10;8.98;;;6.65;;
51148;SDS011;37210;50.058;8.688;2022-10-04T01:32:40;9.48;;;6.45;;
51148;SDS011;37210;50.058;8.688;2022-10-04T01:35:10;7.60;;;6.53;;
51148;SDS011;37210;50.058;8.688;2022-10-04T01:37:42;7.95;;;6.72;;
51148;SDS011;37210;50.058;8.688;2022-10-04T01:40:10;8.52;;;6.57;;
51148;SDS011;37210;50.058;8.688;2022-10-04T01:42:40;8.68;;;6.70;;
51148;SDS011;37210;50.058;8.688;2022-10-04T01:45:16;10.25;;;6.38;;
51148;SDS011;37210;50.058;8.688;2022-10-04T01:47:54;7.38;;;6.40;;
51148;SDS011;37210;50.058;8.688;2022-10-04T01:50:27;8.68;;;7.13;;
51148;SDS011;37210;50.058;8.688;2022-10-04T01:53:05;7.55;;;6.80;;
51148;SDS011;37210;50.058;8.688;2022-10-04T01:55:46;7.25;;;6.55;;
51148;SDS011;37210;50.058;8.688;2022-10-04T01:58:21;7.55;;;6.72;;
51148;SDS011;37210;50.058;8.688;2022-10-04T02:00:55;10.48;;;6.47;;
51148;SDS011;37210;50.058;8.688;2022-10-04T02:03:32;7.32;;;6.63;;
51148;SDS011;37210;50.058;8.688;2022-10-04T02:06:07;9.60;;;7.25;;
51148;SDS011;37210;50.058;8.688;2022-10-04T02:08:39;9.95;;;6.65;;
51148;SDS011;37210;50.058;8.688;2022-10-04T02:11:15;6.97;;;6.25;;
51148;SDS011;37210;50.058;8.688;2022-10-04T02:13:47;7.47;;;5.72;;
51148;SDS011;37210;50.058;8.688;2022-10-04T02:16:20;7.97;;;6.55;;
51148;SDS011;37210;50.058;8.688;2022-10-04T02:18:51;6.63;;;5.75;;
51148;SDS011;37210;50.058;8.688;2022-10-04T02:21:20;7.70;;;5.95;;
51148;SDS011;37210;50.058;8.688;2022-10-04T02:23:51;7.45;;;5.85;;
51148;SDS011;37210;50.058;8.688;2022-10-04T02:26:20;7.35;;;5.57;;
51148;SDS011;37210;50.058;8.688;2022-10-04T02:28:47;8.52;;;6.57;;
51148;SDS011;37210;50.058;8.688;2022-10-04T02:31:17;6.68;;;6.07;;
51148;SDS011;37210;50.058;8.688;2022-10-04T02:34:06;7.10;;;6.40;;
51148;SDS011;37210;50.058;8.688;2022-10-04T02:36:34;6.78;;;5.68;;
51148;SDS011;37210;50.058;8.688;2022-10-04T02:39:06;7.35;;;6.03;;
51148;SDS011;37210;50.058;8.688;2022-10-04T02:41:42;6.32;;;5.72;;
51148;SDS011;37210;50.058;8.688;2022-10-04T02:44:16;6.80;;;5.70;;
51148;SDS011;37210;50.058;8.688;2022-10-04T02:46:52;8.88;;;6.07;;
51148;SDS011;37210;50.058;8.688;2022-10-04T02:49:32;6.60;;;5.95;;
51148;SDS011;37210;50.058;8.688;2022-10-04T02:52:05;6.80;;;5.70;;
51148;SDS011;37210;50.058;8.688;2022-10-04T02:54:39;6.45;;;5.60;;
51148;SDS011;37210;50.058;8.688;2022-10-04T02:57:14;6.60;;;5.70;;
51148;SDS011;37210;50.058;8.688;2022-10-04T02:59:44;14.43;;;6.15;;
51148;SDS011;37210;50.058;8.688;2022-10-04T03:02:20;6.55;;;5.05;;
51148;SDS011;37210;50.058;8.688;2022-10-04T03:04:52;6.20;;;5.45;;
51148;SDS011;37210;50.058;8.688;2022-10-04T03:07:26;5.43;;;4.60;;
51148;SDS011;37210;50.058;8.688;2022-10-04T03:09:55;5.05;;;4.57;;
51148;SDS011;37210;50.058;8.688;2022-10-04T03:12:23;4.45;;;4.05;;
51148;SDS011;37210;50.058;8.688;2022-10-04T03:14:51;4.43;;;4.03;;
51148;SDS011;37210;50.058;8.688;2022-10-04T03:17:23;8.90;;;3.85;;
51148;SDS011;37210;50.058;8.688;2022-10-04T03:19:50;5.50;;;3.88;;
51148;SDS011;37210;50.058;8.688;2022-10-04T03:22:20;4.25;;;3.85;;
51148;SDS011;37210;50.058;8.688;2022-10-04T03:24:50;5.28;;;3.90;;
51148;SDS011;37210;50.058;8.688;2022-10-04T03:27:24;6.13;;;4.00;;
51148;SDS011;37210;50.058;8.688;2022-10-04T03:29:58;5.25;;;4.75;;
51148;SDS011;37210;50.058;8.688;2022-10-04T03:32:27;12.93;;;5.20;;
51148;SDS011;37210;50.058;8.688;2022-10-04T03:34:57;11.25;;;4.53;;
51148;SDS011;37210;50.058;8.688;2022-10-04T03:37:28;8.20;;;4.95;;
51148;SDS011;37210;50.058;8.688;2022-10-04T03:40:02;6.45;;;5.18;;
51148;SDS011;37210;50.058;8.688;2022-10-04T03:42:36;44.67;;;8.13;;
51148;SDS011;37210;50.058;8.688;2022-10-04T03:45:07;53.17;;;8.10;;
51148;SDS011;37210;50.058;8.688;2022-10-04T03:50:13;6.60;;;5.15;;
51148;SDS011;37210;50.058;8.688;2022-10-04T03:52:47;10.30;;;5.53;;
51148;SDS011;37210;50.058;8.688;2022-10-04T03:55:19;5.75;;;5.00;;
51148;SDS011;37210;50.058;8.688;2022-10-04T03:57:52;30.02;;;6.78;;
51148;SDS011;37210;50.058;8.688;2022-10-04T04:00:20;17.48;;;6.53;;
51148;SDS011;37210;50.058;8.688;2022-10-04T04:02:48;10.50;;;5.13;;
51148;SDS011;37210;50.058;8.688;2022-10-04T04:05:22;10.27;;;5.03;;
51148;SDS011;37210;50.058;8.688;2022-10-04T04:07:59;31.33;;;7.10;;
51148;SDS011;37210;50.058;8.688;2022-10-04T04:10:34;6.85;;;4.70;;
51148;SDS011;37210;50.058;8.688;2022-10-04T04:13:13;15.93;;;5.75;;
51148;SDS011;37210;50.058;8.688;2022-10-04T04:15:49;10.25;;;5.22;;
51148;SDS011;37210;50.058;8.688;2022-10-04T04:18:20;5.63;;;4.60;;
51148;SDS011;37210;50.058;8.688;2022-10-04T04:20:50;5.38;;;4.72;;
51148;SDS011;37210;50.058;8.688;2022-10-04T04:23:25;9.10;;;4.45;;
51148;SDS011;37210;50.058;8.688;2022-10-04T04:25:59;5.00;;;4.50;;
51148;SDS011;37210;50.058;8.688;2022-10-04T04:28:51;4.72;;;4.32;;
51148;SDS011;37210;50.058;8.688;2022-10-04T04:31:28;10.70;;;4.75;;
51148;SDS011;37210;50.058;8.688;2022-10-04T04:34:04;6.85;;;5.05;;
51148;SDS011;37210;50.058;8.688;2022-10-04T04:36:43;4.95;;;4.53;;
51148;SDS011;37210;50.058;8.688;2022-10-04T04:39:13;4.50;;;4.20;;
51148;SDS011;37210;50.058;8.688;2022-10-04T04:42:02;10.13;;;4.78;;
51148;SDS011;37210;50.058;8.688;2022-10-04T04:44:45;4.68;;;3.95;;
51148;SDS011;37210;50.058;8.688;2022-10-04T04:47:20;4.57;;;4.18;;
51148;SDS011;37210;50.058;8.688;2022-10-04T04:49:56;5.40;;;4.57;;
51148;SDS011;37210;50.058;8.688;2022-10-04T04:52:30;8.82;;;4.97;;
51148;SDS011;37210;50.058;8.688;2022-10-04T04:55:00;10.40;;;5.60;;
51148;SDS011;37210;50.058;8.688;2022-10-04T04:57:29;5.57;;;5.07;;
51148;SDS011;37210;50.058;8.688;2022-10-04T05:00:00;6.78;;;5.13;;
51148;SDS011;37210;50.058;8.688;2022-10-04T05:02:29;5.22;;;4.72;;
51148;SDS011;37210;50.058;8.688;2022-10-04T05:08:12;6.43;;;4.88;;
51148;SDS011;37210;50.058;8.688;2022-10-04T05:10:45;5.38;;;4.88;;
51148;SDS011;37210;50.058;8.688;2022-10-04T05:13:20;12.70;;;4.80;;
51148;SDS011;37210;50.058;8.688;2022-10-04T05:15:52;12.55;;;5.22;;
51148;SDS011;37210;50.058;8.688;2022-10-04T05:18:26;25.15;;;6.05;;
51148;SDS011;37210;50.058;8.688;2022-10-04T05:20:57;13.73;;;5.70;;
51148;SDS011;37210;50.058;8.688;2022-10-04T05:23:32;27.58;;;6.88;;
51148;SDS011;37210;50.058;8.688;2022-10-04T05:26:00;4.65;;;4.25;;
51148;SDS011;37210;50.058;8.688;2022-10-04T05:28:29;5.45;;;4.95;;
51148;SDS011;37210;50.058;8.688;2022-10-04T05:31:20;13.38;;;5.15;;
51148;SDS011;37210;50.058;8.688;2022-10-04T05:34:05;12.00;;;5.20;;
51148;SDS011;37210;50.058;8.688;2022-10-04T05:36:54;8.32;;;5.35;;
51148;SDS011;37210;50.058;8.688;2022-10-04T05:39:34;4.68;;;4.28;;
51148;SDS011;37210;50.058;8.688;2022-10-04T05:42:12;5.32;;;4.88;;
51148;SDS011;37210;50.058;8.688;2022-10-04T05:47:20;5.28;;;4.78;;
51148;SDS011;37210;50.058;8.688;2022-10-04T05:49:53;5.97;;;5.43;;
51148;SDS011;37210;50.058;8.688;2022-10-04T05:52:26;5.45;;;4.97;;
51148;SDS011;37210;50.058;8.688;2022-10-04T05:55:11;6.13;;;5.53;;
51148;SDS011;37210;50.058;8.688;2022-10-04T05:57:50;5.75;;;5.22;;
51148;SDS011;37210;50.058;8.688;2022-10-04T06:00:44;7.22;;;6.00;;
51148;SDS011;37210;50.058;8.688;2022-10-04T06:03:50;6.25;;;5.65;;
51148;SDS011;37210;50.058;8.688;2022-10-04T06:06:49;6.22;;;5.60;;
51148;SDS011;37210;50.058;8.688;2022-10-04T06:09:34;6.93;;;6.15;;
51148;SDS011;37210;50.058;8.688;2022-10-04T06:12:39;6.00;;;5.30;;
51148;SDS011;37210;50.058;8.688;2022-10-04T06:15:23;5.05;;;4.65;;
51148;SDS011;37210;50.058;8.688;2022-10-04T06:18:24;5.93;;;5.43;;
51148;SDS011;37210;50.058;8.688;2022-10-04T06:21:17;6.07;;;5.47;;
51148;SDS011;37210;50.058;8.688;2022-10-04T06:23:50;14.98;;;7.05;;
51148;SDS011;37210;50.058;8.688;2022-10-04T06:26:27;6.28;;;5.68;;
51148;SDS011;37210;50.058;8.688;2022-10-04T06:29:09;8.10;;;6.18;;
51148;SDS011;37210;50.058;8.688;2022-10-04T06:31:50;8.05;;;6.63;;
51148;SDS011;37210;50.058;8.688;2022-10-04T06:34:53;6.53;;;5.80;;
51148;SDS011;37210;50.058;8.688;2022-10-04T06:38:04;6.63;;;5.70;;
51148;SDS011;37210;50.058;8.688;2022-10-04T06:41:18;6.95;;;6.18;;
51148;SDS011;37210;50.058;8.688;2022-10-04T06:47:30;6.57;;;5.93;;
51148;SDS011;37210;50.058;8.688;2022-10-04T06:50:27;6.57;;;5.95;;
51148;SDS011;37210;50.058;8.688;2022-10-04T06:53:14;10.00;;;6.85;;
51148;SDS011;37210;50.058;8.688;2022-10-04T06:56:07;7.53;;;6.75;;
51148;SDS011;37210;50.058;8.688;2022-10-04T06:59:06;8.88;;;6.50;;
51148;SDS011;37210;50.058;8.688;2022-10-04T07:02:10;7.72;;;6.50;;
51148;SDS011;37210;50.058;8.688;2022-10-04T07:04:48;6.60;;;5.97;;
51148;SDS011;37210;50.058;8.688;2022-10-04T07:07:28;10.07;;;7.10;;
51148;SDS011;37210;50.058;8.688;2022-10-04T07:10:17;9.32;;;6.68;;
51148;SDS011;37210;50.058;8.688;2022-10-04T07:15:55;8.82;;;7.28;;
51148;SDS011;37210;50.058;8.688;2022-10-04T07:18:33;11.02;;;9.93;;
51148;SDS011;37210;50.058;8.688;2022-10-04T07:21:10;10.73;;;8.75;;
51148;SDS011;37210;50.058;8.688;2022-10-04T07:23:48;7.63;;;6.82;;
51148;SDS011;37210;50.058;8.688;2022-10-04T07:26:24;7.40;;;6.78;;
51148;SDS011;37210;50.058;8.688;2022-10-04T07:29:00;8.20;;;6.65;;
51148;SDS011;37210;50.058;8.688;2022-10-04T07:31:50;8.40;;;7.60;;
51148;SDS011;37210;50.058;8.688;2022-10-04T07:34:33;14.20;;;7.78;;
51148;SDS011;37210;50.058;8.688;2022-10-04T07:37:11;10.65;;;7.53;;
51148;SDS011;37210;50.058;8.688;2022-10-04T07:39:42;8.93;;;7.82;;
51148;SDS011;37210;50.058;8.688;2022-10-04T07:42:21;8.45;;;7.57;;
51148;SDS011;37210;50.058;8.688;2022-10-04T07:45:08;7.28;;;6.57;;
51148;SDS011;37210;50.058;8.688;2022-10-04T07:47:43;9.55;;;7.45;;
51148;SDS011;37210;50.058;8.688;2022-10-04T07:50:15;7.78;;;6.85;;
51148;SDS011;37210;50.058;8.688;2022-10-04T07:52:51;9.23;;;7.00;;
51148;SDS011;37210;50.058;8.688;2022-10-04T07:55:26;8.55;;;6.85;;
51148;SDS011;37210;50.058;8.688;2022-10-04T07:58:12;8.32;;;6.40;;
51148;SDS011;37210;50.058;8.688;2022-10-04T08:00:53;7.00;;;6.30;;
51148;SDS011;37210;50.058;8.688;2022-10-04T08:03:43;8.18;;;7.38;;
51148;SDS011;37210;50.058;8.688;2022-10-04T08:06:30;9.65;;;6.68;;
51148;SDS011;37210;50.058;8.688;2022-10-04T08:12:07;8.48;;;7.40;;
51148;SDS011;37210;50.058;8.688;2022-10-04T08:14:52;8.15;;;6.93;;
51148;SDS011;37210;50.058;8.688;2022-10-04T08:17:30;9.65;;;7.15;;
51148;SDS011;37210;50.058;8.688;2022-10-04T08:20:17;7.95;;;7.00;;
51148;SDS011;37210;50.058;8.688;2022-10-04T08:23:06;8.18;;;7.38;;
51148;SDS011;37210;50.058;8.688;2022-10-04T08:26:17;9.05;;;8.00;;
51148;SDS011;37210;50.058;8.688;2022-10-04T08:29:10;9.23;;;8.32;;
51148;SDS011;37210;50.058;8.688;2022-10-04T08:32:18;8.20;;;7.47;;
51148;SDS011;37210;50.058;8.688;2022-10-04T08:35:07;9.55;;;7.30;;
51148;SDS011;37210;50.058;8.688;2022-10-04T08:38:07;8.75;;;7.18;;
51148;SDS011;37210;50.058;8.688;2022-10-04T08:55:17;8.60;;;5.97;;
51148;SDS011;37210;50.058;8.688;2022-10-04T08:58:14;6.65;;;5.80;;
51148;SDS011;37210;50.058;8.688;2022-10-04T09:01:05;6.57;;;5.85;;
51148;SDS011;37210;50.058;8.688;2022-10-04T09:10:44;7.00;;;6.03;;
51148;SDS011;37210;50.058;8.688;2022-10-04T09:13:39;6.30;;;5.63;;
51148;SDS011;37210;50.058;8.688;2022-10-04T09:16:40;7.80;;;4.80;;
51148;SDS011;37210;50.058;8.688;2022-10-04T09:19:19;6.72;;;5.30;;
51148;SDS011;37210;50.058;8.688;2022-10-04T09:22:00;7.18;;;5.15;;
51148;SDS011;37210;50.058;8.688;2022-10-04T09:25:02;6.10;;;4.97;;
51148;SDS011;37210;50.058;8.688;2022-10-04T09:28:08;5.32;;;4.85;;
51148;SDS011;37210;50.058;8.688;2022-10-04T09:30:51;5.75;;;4.43;;
51148;SDS011;37210;50.058;8.688;2022-10-04T09:33:49;7.15;;;4.60;;
51148;SDS011;37210;50.058;8.688;2022-10-04T09:36:44;9.85;;;4.70;;
51148;SDS011;37210;50.058;8.688;2022-10-04T09:43:11;4.88;;;4.47;;
51148;SDS011;37210;50.058;8.688;2022-10-04T09:46:13;5.65;;;4.55;;
51148;SDS011;37210;50.058;8.688;2022-10-04T09:49:07;6.63;;;4.40;;
51148;SDS011;37210;50.058;8.688;2022-10-04T09:52:11;7.43;;;4.85;;
51148;SDS011;37210;50.058;8.688;2022-10-04T09:55:23;4.55;;;3.85;;
51148;SDS011;37210;50.058;8.688;2022-10-04T09:58:21;4.97;;;4.40;;
51148;SDS011;37210;50.058;8.688;2022-10-04T10:01:17;4.78;;;4.25;;
51148;SDS011;37210;50.058;8.688;2022-10-04T10:07:17;4.95;;;4.13;;
51148;SDS011;37210;50.058;8.688;2022-10-04T10:10:05;4.55;;;3.63;;
51148;SDS011;37210;50.058;8.688;2022-10-04T10:13:10;4.30;;;3.70;;
51148;SDS011;37210;50.058;8.688;2022-10-04T10:16:11;4.25;;;3.55;;
51148;SDS011;37210;50.058;8.688;2022-10-04T10:19:13;4.03;;;3.57;;
51148;SDS011;37210;50.058;8.688;2022-10-04T10:22:13;6.72;;;3.38;;
51148;SDS011;37210;50.058;8.688;2022-10-04T10:25:14;6.55;;;3.60;;
51148;SDS011;37210;50.058;8.688;2022-10-04T10:28:11;6.28;;;3.65;;
51148;SDS011;37210;50.058;8.688;2022-10-04T10:31:26;3.58;;;3.28;;
51148;SDS011;37210;50.058;8.688;2022-10-04T10:34:26;4.32;;;2.80;;
51148;SDS011;37210;50.058;8.688;2022-10-04T10:37:20;6.85;;;3.60;;
51148;SDS011;37210;50.058;8.688;2022-10-04T10:40:06;3.65;;;3.15;;
51148;SDS011;37210;50.058;8.688;2022-10-04T10:42:59;6.68;;;3.88;;
51148;SDS011;37210;50.058;8.688;2022-10-04T10:45:58;4.63;;;3.65;;
51148;SDS011;37210;50.058;8.688;2022-10-04T10:48:43;3.20;;;2.90;;
51148;SDS011;37210;50.058;8.688;2022-10-04T10:51:33;3.70;;;3.40;;
51148;SDS011;37210;50.058;8.688;2022-10-04T10:57:57;5.57;;;3.63;;
51148;SDS011;37210;50.058;8.688;2022-10-04T11:01:06;5.70;;;3.33;;
51148;SDS011;37210;50.058;8.688;2022-10-04T11:04:16;6.25;;;3.28;;
51148;SDS011;37210;50.058;8.688;2022-10-04T11:07:21;6.57;;;3.25;;
51148;SDS011;37210;50.058;8.688;2022-10-04T11:13:37;3.47;;;2.90;;
51148;SDS011;37210;50.058;8.688;2022-10-04T11:26:56;5.60;;;3.30;;
51148;SDS011;37210;50.058;8.688;2022-10-04T11:36:11;3.75;;;2.90;;
51148;SDS011;37210;50.058;8.688;2022-10-04T11:39:06;3.70;;;2.70;;
51148;SDS011;37210;50.058;8.688;2022-10-04T11:42:04;3.92;;;3.15;;
51148;SDS011;37210;50.058;8.688;2022-10-04T11:44:53;5.03;;;3.28;;
51148;SDS011;37210;50.058;8.688;2022-10-04T11:48:13;3.30;;;2.97;;
51148;SDS011;37210;50.058;8.688;2022-10-04T11:51:05;7.07;;;4.00;;
51148;SDS011;37210;50.058;8.688;2022-10-04T11:54:22;4.35;;;2.80;;
51148;SDS011;37210;50.058;8.688;2022-10-04T11:57:18;3.08;;;2.78;;
51148;SDS011;37210;50.058;8.688;2022-10-04T12:00:05;2.70;;;2.50;;
51148;SDS011;37210;50.058;8.688;2022-10-04T12:02:45;4.43;;;2.97;;
51148;SDS011;37210;50.058;8.688;2022-10-04T12:08:52;6.82;;;3.28;;
51148;SDS011;37210;50.058;8.688;2022-10-04T12:11:45;3.70;;;3.03;;
51148;SDS011;37210;50.058;8.688;2022-10-04T12:14:58;7.25;;;3.22;;
51148;SDS011;37210;50.058;8.688;2022-10-04T12:24:56;3.63;;;2.95;;
51148;SDS011;37210;50.058;8.688;2022-10-04T12:28:06;3.85;;;3.05;;
51148;SDS011;37210;50.058;8.688;2022-10-04T12:31:08;3.95;;;2.92;;
51148;SDS011;37210;50.058;8.688;2022-10-04T12:33:53;3.08;;;2.78;;
51148;SDS011;37210;50.058;8.688;2022-10-04T12:36:36;5.63;;;2.90;;
51148;SDS011;37210;50.058;8.688;2022-10-04T12:39:36;3.72;;;2.47;;
51148;SDS011;37210;50.058;8.688;2022-10-04T12:42:30;5.40;;;2.60;;
51148;SDS011;37210;50.058;8.688;2022-10-04T12:45:17;4.20;;;2.55;;
51148;SDS011;37210;50.058;8.688;2022-10-04T12:51:19;4.75;;;3.00;;
51148;SDS011;37210;50.058;8.688;2022-10-04T12:54:08;4.05;;;2.58;;
51148;SDS011;37210;50.058;8.688;2022-10-04T12:56:57;2.97;;;2.60;;
51148;SDS011;37210;50.058;8.688;2022-10-04T13:00:05;5.55;;;3.00;;
51148;SDS011;37210;50.058;8.688;2022-10-04T13:02:52;6.03;;;3.10;;
51148;SDS011;37210;50.058;8.688;2022-10-04T13:05:47;3.40;;;2.90;;
51148;SDS011;37210;50.058;8.688;2022-10-04T13:08:39;3.25;;;2.53;;
51148;SDS011;37210;50.058;8.688;2022-10-04T13:11:31;3.10;;;2.58;;
51148;SDS011;37210;50.058;8.688;2022-10-04T13:14:32;3.47;;;3.00;;
51148;SDS011;37210;50.058;8.688;2022-10-04T13:17:38;12.57;;;3.95;;
51148;SDS011;37210;50.058;8.688;2022-10-04T13:20:30;8.13;;;3.60;;
51148;SDS011;37210;50.058;8.688;2022-10-04T13:23:18;5.10;;;3.20;;
51148;SDS011;37210;50.058;8.688;2022-10-04T13:26:07;4.78;;;3.75;;
51148;SDS011;37210;50.058;8.688;2022-10-04T13:28:58;4.57;;;3.50;;
51148;SDS011;37210;50.058;8.688;2022-10-04T13:31:35;6.03;;;3.15;;
51148;SDS011;37210;50.058;8.688;2022-10-04T13:34:15;4.88;;;3.08;;
51148;SDS011;37210;50.058;8.688;2022-10-04T13:37:00;6.40;;;2.90;;
51148;SDS011;37210;50.058;8.688;2022-10-04T13:39:48;6.35;;;3.08;;
51148;SDS011;37210;50.058;8.688;2022-10-04T13:42:52;3.35;;;2.50;;
51148;SDS011;37210;50.058;8.688;2022-10-04T13:46:09;3.60;;;2.60;;
51148;SDS011;37210;50.058;8.688;2022-10-04T13:49:00;2.13;;;1.92;;
51148;SDS011;37210;50.058;8.688;2022-10-04T13:51:59;4.82;;;2.88;;
51148;SDS011;37210;50.058;8.688;2022-10-04T13:55:01;4.07;;;2.80;;
51148;SDS011;37210;50.058;8.688;2022-10-04T13:58:12;3.85;;;2.38;;
51148;SDS011;37210;50.058;8.688;2022-10-04T14:04:38;3.00;;;2.35;;
51148;SDS011;37210;50.058;8.688;2022-10-04T14:07:49;4.40;;;2.75;;
51148;SDS011;37210;50.058;8.688;2022-10-04T14:10:49;2.42;;;2.22;;
51148;SDS011;37210;50.058;8.688;2022-10-04T14:24:03;4.03;;;2.70;;
51148;SDS011;37210;50.058;8.688;2022-10-04T14:30:27;2.40;;;2.20;;
51148;SDS011;37210;50.058;8.688;2022-10-04T14:33:22;4.60;;;2.95;;
51148;SDS011;37210;50.058;8.688;2022-10-04T14:36:18;3.63;;;3.10;;
51148;SDS011;37210;50.058;8.688;2022-10-04T14:42:20;3.65;;;2.50;;
51148;SDS011;37210;50.058;8.688;2022-10-04T14:45:31;5.80;;;3.20;;
51148;SDS011;37210;50.058;8.688;2022-10-04T14:48:37;3.50;;;2.60;;
51148;SDS011;37210;50.058;8.688;2022-10-04T14:51:38;3.17;;;2.35;;
51148;SDS011;37210;50.058;8.688;2022-10-04T14:54:29;3.25;;;2.20;;
51148;SDS011;37210;50.058;8.688;2022-10-04T14:57:20;2.88;;;2.42;;
51148;SDS011;37210;50.058;8.688;2022-10-04T15:00:16;2.95;;;2.17;;
51148;SDS011;37210;50.058;8.688;2022-10-04T15:05:58;8.23;;;2.78;;
51148;SDS011;37210;50.058;8.688;2022-10-04T15:09:01;4.47;;;2.88;;
51148;SDS011;37210;50.058;8.688;2022-10-04T15:11:50;3.30;;;2.53;;
51148;SDS011;37210;50.058;8.688;2022-10-04T15:14:31;3.45;;;2.33;;
51148;SDS011;37210;50.058;8.688;2022-10-04T15:17:06;3.33;;;2.50;;
51148;SDS011;37210;50.058;8.688;2022-10-04T15:19:49;3.53;;;3.05;;
51148;SDS011;37210;50.058;8.688;2022-10-04T15:22:37;2.80;;;2.53;;
51148;SDS011;37210;50.058;8.688;2022-10-04T15:28:13;4.22;;;3.17;;
51148;SDS011;37210;50.058;8.688;2022-10-04T15:31:07;3.17;;;2.35;;
51148;SDS011;37210;50.058;8.688;2022-10-04T15:33:53;6.22;;;3.28;;
51148;SDS011;37210;50.058;8.688;2022-10-04T15:39:56;5.05;;;3.15;;
51148;SDS011;37210;50.058;8.688;2022-10-04T15:42:53;5.53;;;3.72;;
51148;SDS011;37210;50.058;8.688;2022-10-04T15:45:53;4.28;;;2.35;;
51148;SDS011;37210;50.058;8.688;2022-10-04T15:48:51;3.90;;;2.30;;
51148;SDS011;37210;50.058;8.688;2022-10-04T15:55:09;4.18;;;2.80;;
51148;SDS011;37210;50.058;8.688;2022-10-04T16:01:05;3.97;;;2.20;;
51148;SDS011;37210;50.058;8.688;2022-10-04T16:04:11;3.15;;;2.85;;
51148;SDS011;37210;50.058;8.688;2022-10-04T16:07:12;5.65;;;3.20;;
51148;SDS011;37210;50.058;8.688;2022-10-04T16:10:26;6.03;;;5.15;;
51148;SDS011;37210;50.058;8.688;2022-10-04T16:13:35;4.97;;;3.92;;
51148;SDS011;37210;50.058;8.688;2022-10-04T16:19:51;4.85;;;3.97;;
51148;SDS011;37210;50.058;8.688;2022-10-04T16:22:41;3.08;;;2.70;;
51148;SDS011;37210;50.058;8.688;2022-10-04T16:25:54;4.90;;;3.33;;
51148;SDS011;37210;50.058;8.688;2022-10-04T16:31:36;4.65;;;2.95;;
51148;SDS011;37210;50.058;8.688;2022-10-04T16:34:28;6.47;;;3.45;;
51148;SDS011;37210;50.058;8.688;2022-10-04T16:37:25;5.30;;;3.67;;
51148;SDS011;37210;50.058;8.688;2022-10-04T16:40:04;5.20;;;4.00;;
51148;SDS011;37210;50.058;8.688;2022-10-04T16:42:56;4.40;;;3.47;;
51148;SDS011;37210;50.058;8.688;2022-10-04T16:45:42;3.70;;;2.97;;
51148;SDS011;37210;50.058;8.688;2022-10-04T16:48:31;3.72;;;3.33;;
51148;SDS011;37210;50.058;8.688;2022-10-04T16:51:21;5.35;;;3.50;;
51148;SDS011;37210;50.058;8.688;2022-10-04T16:54:36;4.10;;;3.65;;
51148;SDS011;37210;50.058;8.688;2022-10-04T16:57:29;6.15;;;3.92;;
51148;SDS011;37210;50.058;8.688;2022-10-04T16:59:57;3.83;;;3.53;;
51148;SDS011;37210;50.058;8.688;2022-10-04T17:02:40;5.07;;;3.28;;
51148;SDS011;37210;50.058;8.688;2022-10-04T17:05:48;4.43;;;3.42;;
51148;SDS011;37210;50.058;8.688;2022-10-04T17:09:05;5.25;;;3.33;;
51148;SDS011;37210;50.058;8.688;2022-10-04T17:11:47;5.43;;;3.30;;
51148;SDS011;37210;50.058;8.688;2022-10-04T17:14:45;4.65;;;3.90;;
51148;SDS011;37210;50.058;8.688;2022-10-04T17:17:30;5.03;;;3.47;;
51148;SDS011;37210;50.058;8.688;2022-10-04T17:20:14;4.57;;;3.35;;
51148;SDS011;37210;50.058;8.688;2022-10-04T17:23:03;5.50;;;3.80;;
51148;SDS011;37210;50.058;8.688;2022-10-04T17:25:53;5.20;;;3.70;;
51148;SDS011;37210;50.058;8.688;2022-10-04T17:28:42;6.65;;;5.05;;
51148;SDS011;37210;50.058;8.688;2022-10-04T17:31:25;11.77;;;9.57;;
51148;SDS011;37210;50.058;8.688;2022-10-04T17:34:06;17.05;;;13.70;;
51148;SDS011;37210;50.058;8.688;2022-10-04T17:36:48;15.18;;;11.98;;
51148;SDS011;37210;50.058;8.688;2022-10-04T17:39:26;6.97;;;6.28;;
51148;SDS011;37210;50.058;8.688;2022-10-04T17:42:17;6.45;;;4.18;;
51148;SDS011;37210;50.058;8.688;2022-10-04T17:45:11;5.60;;;3.75;;
51148;SDS011;37210;50.058;8.688;2022-10-04T17:47:57;5.28;;;3.88;;
51148;SDS011;37210;50.058;8.688;2022-10-04T17:50:53;6.53;;;5.57;;
51148;SDS011;37210;50.058;8.688;2022-10-04T17:53:47;5.28;;;4.50;;
51148;SDS011;37210;50.058;8.688;2022-10-04T17:56:41;31.67;;;23.48;;
51148;SDS011;37210;50.058;8.688;2022-10-04T17:59:17;16.17;;;13.38;;
51148;SDS011;37210;50.058;8.688;2022-10-04T18:01:52;26.15;;;22.73;;
51148;SDS011;37210;50.058;8.688;2022-10-04T18:04:37;42.22;;;32.25;;
51148;SDS011;37210;50.058;8.688;2022-10-04T18:07:16;30.98;;;24.92;;
51148;SDS011;37210;50.058;8.688;2022-10-04T18:09:49;35.88;;;28.38;;
51148;SDS011;37210;50.058;8.688;2022-10-04T18:12:25;21.35;;;17.45;;
51148;SDS011;37210;50.058;8.688;2022-10-04T18:14:59;7.57;;;5.78;;
51148;SDS011;37210;50.058;8.688;2022-10-04T18:17:41;35.45;;;28.83;;
51148;SDS011;37210;50.058;8.688;2022-10-04T18:20:20;28.08;;;23.65;;
51148;SDS011;37210;50.058;8.688;2022-10-04T18:22:55;41.17;;;32.92;;
51148;SDS011;37210;50.058;8.688;2022-10-04T18:25:26;24.05;;;17.42;;
51148;SDS011;37210;50.058;8.688;2022-10-04T18:28:00;19.85;;;17.58;;
51148;SDS011;37210;50.058;8.688;2022-10-04T18:30:52;14.77;;;11.40;;
51148;SDS011;37210;50.058;8.688;2022-10-04T18:33:28;12.95;;;8.98;;
51148;SDS011;37210;50.058;8.688;2022-10-04T18:36:16;10.32;;;7.93;;
51148;SDS011;37210;50.058;8.688;2022-10-04T18:38:57;9.45;;;7.40;;